sensor_id;sensor_type;location;lat;lon;timestamp;P1;durP1;ratioP1;P2;durP2;ratioP2
50092;SDS011;35974;47.752;10.290;2024-02-15T00:01:51;4.25;;;2.95;;
50092;SDS011;35974;47.752;10.290;2024-02-15T00:04:18;5.30;;;3.47;;
50092;SDS011;35974;47.752;10.290;2024-02-15T00:06:45;7.22;;;3.38;;
50092;SDS011;35974;47.752;10.290;2024-02-15T00:09:14;5.13;;;2.97;;
50092;SDS011;35974;47.752;10.290;2024-02-15T00:11:41;5.90;;;3.08;;
50092;SDS011;35974;47.752;10.290;2024-02-15T00:14:07;5.72;;;3.35;;
50092;SDS011;35974;47.752;10.290;2024-02-15T00:16:34;4.30;;;2.70;;
50092;SDS011;35974;47.752;10.290;2024-02-15T00:19:04;4.70;;;2.75;;
50092;SDS011;35974;47.752;10.290;2024-02-15T00:21:33;5.95;;;3.08;;
50092;SDS011;35974;47.752;10.290;2024-02-15T00:23:59;5.80;;;3.00;;
50092;SDS011;35974;47.752;10.290;2024-02-15T00:26:26;5.95;;;2.95;;
50092;SDS011;35974;47.752;10.290;2024-02-15T00:28:53;5.38;;;2.80;;
50092;SDS011;35974;47.752;10.290;2024-02-15T00:31:19;4.35;;;2.53;;
50092;SDS011;35974;47.752;10.290;2024-02-15T00:33:46;5.10;;;3.17;;
50092;SDS011;35974;47.752;10.290;2024-02-15T00:36:13;4.45;;;2.75;;
50092;SDS011;35974;47.752;10.290;2024-02-15T00:38:40;5.47;;;2.90;;
50092;SDS011;35974;47.752;10.290;2024-02-15T00:41:09;6.28;;;2.90;;
50092;SDS011;35974;47.752;10.290;2024-02-15T00:43:36;4.20;;;2.67;;
50092;SDS011;35974;47.752;10.290;2024-02-15T00:46:03;6.53;;;3.00;;
50092;SDS011;35974;47.752;10.290;2024-02-15T00:48:30;5.20;;;2.85;;
50092;SDS011;35974;47.752;10.290;2024-02-15T00:50:57;6.15;;;3.05;;
50092;SDS011;35974;47.752;10.290;2024-02-15T00:53:24;4.38;;;2.78;;
50092;SDS011;35974;47.752;10.290;2024-02-15T00:55:51;5.18;;;2.67;;
50092;SDS011;35974;47.752;10.290;2024-02-15T00:58:18;4.55;;;2.90;;
50092;SDS011;35974;47.752;10.290;2024-02-15T01:00:44;4.32;;;2.45;;
50092;SDS011;35974;47.752;10.290;2024-02-15T01:03:11;5.72;;;2.92;;
50092;SDS011;35974;47.752;10.290;2024-02-15T01:05:38;6.07;;;2.88;;
50092;SDS011;35974;47.752;10.290;2024-02-15T01:08:04;4.70;;;2.83;;
50092;SDS011;35974;47.752;10.290;2024-02-15T01:10:31;4.45;;;2.95;;
50092;SDS011;35974;47.752;10.290;2024-02-15T01:12:57;4.40;;;2.80;;
50092;SDS011;35974;47.752;10.290;2024-02-15T01:15:24;4.95;;;2.63;;
50092;SDS011;35974;47.752;10.290;2024-02-15T01:17:51;4.18;;;2.60;;
50092;SDS011;35974;47.752;10.290;2024-02-15T01:20:17;4.28;;;2.80;;
50092;SDS011;35974;47.752;10.290;2024-02-15T01:22:44;5.00;;;3.13;;
50092;SDS011;35974;47.752;10.290;2024-02-15T01:25:10;5.93;;;3.20;;
50092;SDS011;35974;47.752;10.290;2024-02-15T01:27:38;4.78;;;2.90;;
50092;SDS011;35974;47.752;10.290;2024-02-15T01:30:05;5.75;;;2.80;;
50092;SDS011;35974;47.752;10.290;2024-02-15T01:32:32;3.30;;;2.42;;
50092;SDS011;35974;47.752;10.290;2024-02-15T01:34:59;4.28;;;2.67;;
50092;SDS011;35974;47.752;10.290;2024-02-15T01:37:25;4.68;;;2.60;;
50092;SDS011;35974;47.752;10.290;2024-02-15T01:39:52;3.97;;;2.17;;
50092;SDS011;35974;47.752;10.290;2024-02-15T01:42:18;7.50;;;2.35;;
50092;SDS011;35974;47.752;10.290;2024-02-15T01:44:45;4.07;;;2.30;;
50092;SDS011;35974;47.752;10.290;2024-02-15T01:47:14;4.93;;;2.53;;
50092;SDS011;35974;47.752;10.290;2024-02-15T01:49:41;5.60;;;2.67;;
50092;SDS011;35974;47.752;10.290;2024-02-15T01:52:08;3.90;;;2.40;;
50092;SDS011;35974;47.752;10.290;2024-02-15T01:54:36;4.45;;;2.70;;
50092;SDS011;35974;47.752;10.290;2024-02-15T01:57:05;4.35;;;2.50;;
50092;SDS011;35974;47.752;10.290;2024-02-15T01:59:32;4.00;;;2.40;;
50092;SDS011;35974;47.752;10.290;2024-02-15T02:01:59;5.97;;;2.60;;
50092;SDS011;35974;47.752;10.290;2024-02-15T02:04:26;3.15;;;2.20;;
50092;SDS011;35974;47.752;10.290;2024-02-15T02:06:53;4.05;;;2.50;;
50092;SDS011;35974;47.752;10.290;2024-02-15T02:09:25;4.57;;;2.50;;
50092;SDS011;35974;47.752;10.290;2024-02-15T02:11:52;5.75;;;2.55;;
50092;SDS011;35974;47.752;10.290;2024-02-15T02:14:19;4.30;;;2.40;;
50092;SDS011;35974;47.752;10.290;2024-02-15T02:16:46;3.58;;;2.42;;
50092;SDS011;35974;47.752;10.290;2024-02-15T02:19:13;5.15;;;2.25;;
50092;SDS011;35974;47.752;10.290;2024-02-15T02:21:40;4.60;;;2.17;;
50092;SDS011;35974;47.752;10.290;2024-02-15T02:24:28;3.75;;;2.33;;
50092;SDS011;35974;47.752;10.290;2024-02-15T02:26:55;4.57;;;2.47;;
50092;SDS011;35974;47.752;10.290;2024-02-15T02:29:22;4.65;;;1.85;;
50092;SDS011;35974;47.752;10.290;2024-02-15T02:31:48;3.22;;;1.85;;
50092;SDS011;35974;47.752;10.290;2024-02-15T02:34:15;5.10;;;2.03;;
50092;SDS011;35974;47.752;10.290;2024-02-15T02:36:45;3.30;;;1.92;;
50092;SDS011;35974;47.752;10.290;2024-02-15T02:42:51;3.10;;;1.95;;
50092;SDS011;35974;47.752;10.290;2024-02-15T02:45:19;3.33;;;2.00;;
50092;SDS011;35974;47.752;10.290;2024-02-15T02:47:49;5.18;;;2.03;;
50092;SDS011;35974;47.752;10.290;2024-02-15T02:50:20;5.03;;;1.77;;
50092;SDS011;35974;47.752;10.290;2024-02-15T02:52:49;4.30;;;1.67;;
50092;SDS011;35974;47.752;10.290;2024-02-15T02:55:16;2.88;;;1.90;;
50092;SDS011;35974;47.752;10.290;2024-02-15T02:57:43;3.15;;;1.80;;
50092;SDS011;35974;47.752;10.290;2024-02-15T03:00:11;5.05;;;2.00;;
50092;SDS011;35974;47.752;10.290;2024-02-15T03:02:43;3.38;;;1.95;;
50092;SDS011;35974;47.752;10.290;2024-02-15T03:05:10;2.88;;;1.75;;
50092;SDS011;35974;47.752;10.290;2024-02-15T03:07:38;2.92;;;1.70;;
50092;SDS011;35974;47.752;10.290;2024-02-15T03:10:08;4.93;;;2.28;;
50092;SDS011;35974;47.752;10.290;2024-02-15T03:12:36;3.63;;;2.40;;
50092;SDS011;35974;47.752;10.290;2024-02-15T03:15:04;3.53;;;1.92;;
50092;SDS011;35974;47.752;10.290;2024-02-15T03:17:31;3.20;;;2.10;;
50092;SDS011;35974;47.752;10.290;2024-02-15T03:19:58;3.17;;;2.05;;
50092;SDS011;35974;47.752;10.290;2024-02-15T03:22:25;6.70;;;2.25;;
50092;SDS011;35974;47.752;10.290;2024-02-15T03:24:52;4.00;;;2.08;;
50092;SDS011;35974;47.752;10.290;2024-02-15T03:27:18;3.33;;;2.22;;
50092;SDS011;35974;47.752;10.290;2024-02-15T03:29:49;5.53;;;2.50;;
50092;SDS011;35974;47.752;10.290;2024-02-15T03:32:16;3.45;;;2.13;;
50092;SDS011;35974;47.752;10.290;2024-02-15T03:34:43;3.22;;;2.20;;
50092;SDS011;35974;47.752;10.290;2024-02-15T03:37:10;3.65;;;2.28;;
50092;SDS011;35974;47.752;10.290;2024-02-15T03:39:36;3.78;;;2.20;;
50092;SDS011;35974;47.752;10.290;2024-02-15T03:42:03;6.93;;;2.42;;
50092;SDS011;35974;47.752;10.290;2024-02-15T03:44:30;3.47;;;2.10;;
50092;SDS011;35974;47.752;10.290;2024-02-15T03:46:58;5.93;;;2.78;;
50092;SDS011;35974;47.752;10.290;2024-02-15T03:49:25;6.63;;;2.33;;
50092;SDS011;35974;47.752;10.290;2024-02-15T03:51:53;3.75;;;2.03;;
50092;SDS011;35974;47.752;10.290;2024-02-15T03:54:21;4.18;;;2.17;;
50092;SDS011;35974;47.752;10.290;2024-02-15T03:56:49;3.22;;;1.90;;
50092;SDS011;35974;47.752;10.290;2024-02-15T03:59:20;3.80;;;2.03;;
50092;SDS011;35974;47.752;10.290;2024-02-15T04:01:53;4.35;;;2.08;;
50092;SDS011;35974;47.752;10.290;2024-02-15T04:04:20;3.40;;;2.00;;
50092;SDS011;35974;47.752;10.290;2024-02-15T04:06:51;3.30;;;2.03;;
50092;SDS011;35974;47.752;10.290;2024-02-15T04:09:18;4.75;;;2.17;;
50092;SDS011;35974;47.752;10.290;2024-02-15T04:11:47;5.18;;;2.22;;
50092;SDS011;35974;47.752;10.290;2024-02-15T04:14:18;5.40;;;1.95;;
50092;SDS011;35974;47.752;10.290;2024-02-15T04:16:48;2.80;;;2.08;;
50092;SDS011;35974;47.752;10.290;2024-02-15T04:19:15;3.85;;;2.22;;
50092;SDS011;35974;47.752;10.290;2024-02-15T04:21:41;3.28;;;1.95;;
50092;SDS011;35974;47.752;10.290;2024-02-15T04:24:10;4.00;;;2.28;;
50092;SDS011;35974;47.752;10.290;2024-02-15T04:26:37;4.32;;;1.65;;
50092;SDS011;35974;47.752;10.290;2024-02-15T04:29:05;2.67;;;1.65;;
50092;SDS011;35974;47.752;10.290;2024-02-15T04:31:35;3.58;;;1.90;;
50092;SDS011;35974;47.752;10.290;2024-02-15T04:34:05;3.97;;;2.30;;
50092;SDS011;35974;47.752;10.290;2024-02-15T04:36:32;7.93;;;4.15;;
50092;SDS011;35974;47.752;10.290;2024-02-15T04:39:00;4.22;;;2.92;;
50092;SDS011;35974;47.752;10.290;2024-02-15T04:41:30;7.05;;;3.67;;
50092;SDS011;35974;47.752;10.290;2024-02-15T04:43:58;8.27;;;4.28;;
50092;SDS011;35974;47.752;10.290;2024-02-15T04:46:24;7.00;;;3.95;;
50092;SDS011;35974;47.752;10.290;2024-02-15T04:48:51;10.07;;;4.38;;
50092;SDS011;35974;47.752;10.290;2024-02-15T04:51:17;8.70;;;4.47;;
50092;SDS011;35974;47.752;10.290;2024-02-15T04:53:46;7.85;;;4.18;;
50092;SDS011;35974;47.752;10.290;2024-02-15T04:56:14;16.42;;;4.82;;
50092;SDS011;35974;47.752;10.290;2024-02-15T04:58:42;9.50;;;4.10;;
50092;SDS011;35974;47.752;10.290;2024-02-15T05:01:13;5.88;;;3.50;;
50092;SDS011;35974;47.752;10.290;2024-02-15T05:03:46;6.10;;;3.03;;
50092;SDS011;35974;47.752;10.290;2024-02-15T05:06:13;8.63;;;3.30;;
50092;SDS011;35974;47.752;10.290;2024-02-15T05:08:41;5.60;;;3.38;;
50092;SDS011;35974;47.752;10.290;2024-02-15T05:11:13;6.00;;;3.45;;
50092;SDS011;35974;47.752;10.290;2024-02-15T05:13:44;6.15;;;3.45;;
50092;SDS011;35974;47.752;10.290;2024-02-15T05:16:12;5.18;;;2.30;;
50092;SDS011;35974;47.752;10.290;2024-02-15T05:18:39;3.65;;;2.20;;
50092;SDS011;35974;47.752;10.290;2024-02-15T05:21:08;5.18;;;2.05;;
50092;SDS011;35974;47.752;10.290;2024-02-15T05:23:38;3.88;;;2.00;;
50092;SDS011;35974;47.752;10.290;2024-02-15T05:26:08;2.28;;;1.70;;
50092;SDS011;35974;47.752;10.290;2024-02-15T05:28:35;3.58;;;2.00;;
50092;SDS011;35974;47.752;10.290;2024-02-15T05:31:35;4.30;;;1.90;;
50092;SDS011;35974;47.752;10.290;2024-02-15T05:33:55;2.63;;;1.73;;
50092;SDS011;35974;47.752;10.290;2024-02-15T05:36:21;4.25;;;2.00;;
50092;SDS011;35974;47.752;10.290;2024-02-15T05:38:51;3.28;;;2.00;;
50092;SDS011;35974;47.752;10.290;2024-02-15T05:41:19;2.97;;;1.80;;
50092;SDS011;35974;47.752;10.290;2024-02-15T05:43:47;5.35;;;1.80;;
50092;SDS011;35974;47.752;10.290;2024-02-15T05:46:20;3.47;;;1.70;;
50092;SDS011;35974;47.752;10.290;2024-02-15T05:48:49;6.57;;;2.00;;
50092;SDS011;35974;47.752;10.290;2024-02-15T05:51:18;5.78;;;2.00;;
50092;SDS011;35974;47.752;10.290;2024-02-15T05:53:44;5.32;;;1.95;;
50092;SDS011;35974;47.752;10.290;2024-02-15T05:56:12;4.75;;;1.95;;
50092;SDS011;35974;47.752;10.290;2024-02-15T05:58:38;4.88;;;2.10;;
50092;SDS011;35974;47.752;10.290;2024-02-15T06:01:06;2.75;;;1.73;;
50092;SDS011;35974;47.752;10.290;2024-02-15T06:03:33;5.65;;;2.58;;
50092;SDS011;35974;47.752;10.290;2024-02-15T06:06:04;5.97;;;2.60;;
50092;SDS011;35974;47.752;10.290;2024-02-15T06:08:35;6.80;;;2.85;;
50092;SDS011;35974;47.752;10.290;2024-02-15T06:11:03;9.55;;;4.00;;
50092;SDS011;35974;47.752;10.290;2024-02-15T06:13:34;5.82;;;2.90;;
50092;SDS011;35974;47.752;10.290;2024-02-15T06:16:01;10.68;;;3.70;;
50092;SDS011;35974;47.752;10.290;2024-02-15T06:18:28;7.85;;;2.78;;
50092;SDS011;35974;47.752;10.290;2024-02-15T06:20:56;4.57;;;2.40;;
50092;SDS011;35974;47.752;10.290;2024-02-15T06:23:23;7.22;;;2.35;;
50092;SDS011;35974;47.752;10.290;2024-02-15T06:25:52;5.20;;;2.50;;
50092;SDS011;35974;47.752;10.290;2024-02-15T06:28:20;9.35;;;2.92;;
50092;SDS011;35974;47.752;10.290;2024-02-15T06:31:09;7.63;;;3.28;;
50092;SDS011;35974;47.752;10.290;2024-02-15T06:33:55;7.70;;;3.70;;
50092;SDS011;35974;47.752;10.290;2024-02-15T06:36:41;10.65;;;4.45;;
50092;SDS011;35974;47.752;10.290;2024-02-15T06:39:33;11.40;;;4.30;;
50092;SDS011;35974;47.752;10.290;2024-02-15T06:42:11;11.68;;;4.00;;
50092;SDS011;35974;47.752;10.290;2024-02-15T06:44:43;13.45;;;4.88;;
50092;SDS011;35974;47.752;10.290;2024-02-15T06:47:10;11.80;;;4.35;;
50092;SDS011;35974;47.752;10.290;2024-02-15T06:49:37;8.25;;;3.78;;
50092;SDS011;35974;47.752;10.290;2024-02-15T06:52:08;9.20;;;4.00;;
50092;SDS011;35974;47.752;10.290;2024-02-15T06:54:35;30.35;;;5.75;;
50092;SDS011;35974;47.752;10.290;2024-02-15T06:57:04;18.67;;;5.10;;
50092;SDS011;35974;47.752;10.290;2024-02-15T06:59:32;14.13;;;4.43;;
50092;SDS011;35974;47.752;10.290;2024-02-15T07:02:02;10.52;;;3.75;;
50092;SDS011;35974;47.752;10.290;2024-02-15T07:04:31;11.50;;;3.40;;
50092;SDS011;35974;47.752;10.290;2024-02-15T07:06:59;12.25;;;4.55;;
50092;SDS011;35974;47.752;10.290;2024-02-15T07:09:26;9.75;;;3.63;;
50092;SDS011;35974;47.752;10.290;2024-02-15T07:11:54;12.38;;;4.40;;
50092;SDS011;35974;47.752;10.290;2024-02-15T07:14:21;12.32;;;4.80;;
50092;SDS011;35974;47.752;10.290;2024-02-15T07:16:48;7.43;;;3.22;;
50092;SDS011;35974;47.752;10.290;2024-02-15T07:19:16;9.18;;;3.65;;
50092;SDS011;35974;47.752;10.290;2024-02-15T07:21:45;7.93;;;3.45;;
50092;SDS011;35974;47.752;10.290;2024-02-15T07:24:14;7.50;;;3.33;;
50092;SDS011;35974;47.752;10.290;2024-02-15T07:26:40;9.05;;;3.80;;
50092;SDS011;35974;47.752;10.290;2024-02-15T07:29:07;12.13;;;3.85;;
50092;SDS011;35974;47.752;10.290;2024-02-15T07:31:46;12.25;;;3.70;;
50092;SDS011;35974;47.752;10.290;2024-02-15T07:34:12;8.27;;;3.70;;
50092;SDS011;35974;47.752;10.290;2024-02-15T07:36:39;10.98;;;3.35;;
50092;SDS011;35974;47.752;10.290;2024-02-15T07:39:08;10.15;;;4.95;;
50092;SDS011;35974;47.752;10.290;2024-02-15T07:41:39;10.88;;;5.63;;
50092;SDS011;35974;47.752;10.290;2024-02-15T07:44:06;10.55;;;4.90;;
50092;SDS011;35974;47.752;10.290;2024-02-15T07:46:32;8.55;;;3.92;;
50092;SDS011;35974;47.752;10.290;2024-02-15T07:49:00;8.15;;;4.20;;
50092;SDS011;35974;47.752;10.290;2024-02-15T07:51:28;8.15;;;4.63;;
50092;SDS011;35974;47.752;10.290;2024-02-15T07:56:27;7.28;;;3.50;;
50092;SDS011;35974;47.752;10.290;2024-02-15T07:58:54;8.88;;;4.00;;
50092;SDS011;35974;47.752;10.290;2024-02-15T08:01:20;9.35;;;4.30;;
50092;SDS011;35974;47.752;10.290;2024-02-15T08:03:48;8.63;;;4.43;;
50092;SDS011;35974;47.752;10.290;2024-02-15T08:06:15;10.80;;;4.78;;
50092;SDS011;35974;47.752;10.290;2024-02-15T08:08:43;9.30;;;4.85;;
50092;SDS011;35974;47.752;10.290;2024-02-15T08:11:22;10.18;;;4.88;;
50092;SDS011;35974;47.752;10.290;2024-02-15T08:13:50;10.55;;;5.13;;
50092;SDS011;35974;47.752;10.290;2024-02-15T08:16:21;11.30;;;4.90;;
50092;SDS011;35974;47.752;10.290;2024-02-15T08:18:53;11.80;;;5.13;;
50092;SDS011;35974;47.752;10.290;2024-02-15T08:21:27;8.60;;;4.60;;
50092;SDS011;35974;47.752;10.290;2024-02-15T08:23:56;9.52;;;4.90;;
50092;SDS011;35974;47.752;10.290;2024-02-15T08:26:24;10.93;;;5.03;;
50092;SDS011;35974;47.752;10.290;2024-02-15T08:28:50;12.07;;;4.97;;
50092;SDS011;35974;47.752;10.290;2024-02-15T08:31:17;10.40;;;4.53;;
50092;SDS011;35974;47.752;10.290;2024-02-15T08:33:52;12.52;;;5.40;;
50092;SDS011;35974;47.752;10.290;2024-02-15T08:36:19;11.45;;;4.85;;
50092;SDS011;35974;47.752;10.290;2024-02-15T08:38:47;9.88;;;4.63;;
50092;SDS011;35974;47.752;10.290;2024-02-15T08:41:16;6.75;;;4.20;;
50092;SDS011;35974;47.752;10.290;2024-02-15T08:43:45;7.70;;;3.92;;
50092;SDS011;35974;47.752;10.290;2024-02-15T08:46:20;8.65;;;3.88;;
50092;SDS011;35974;47.752;10.290;2024-02-15T08:48:47;7.72;;;3.90;;
50092;SDS011;35974;47.752;10.290;2024-02-15T08:56:26;7.80;;;3.55;;
50092;SDS011;35974;47.752;10.290;2024-02-15T08:58:53;5.35;;;3.33;;
50092;SDS011;35974;47.752;10.290;2024-02-15T09:01:25;6.60;;;3.83;;
50092;SDS011;35974;47.752;10.290;2024-02-15T09:03:52;6.88;;;3.53;;
50092;SDS011;35974;47.752;10.290;2024-02-15T09:08:49;5.72;;;3.03;;
50092;SDS011;35974;47.752;10.290;2024-02-15T09:11:15;6.30;;;3.25;;
50092;SDS011;35974;47.752;10.290;2024-02-15T09:13:42;4.45;;;2.78;;
50092;SDS011;35974;47.752;10.290;2024-02-15T09:16:10;5.72;;;3.05;;
50092;SDS011;35974;47.752;10.290;2024-02-15T09:18:38;6.93;;;2.88;;
50092;SDS011;35974;47.752;10.290;2024-02-15T09:21:11;5.38;;;2.78;;
50092;SDS011;35974;47.752;10.290;2024-02-15T09:23:38;5.32;;;2.53;;
50092;SDS011;35974;47.752;10.290;2024-02-15T09:26:05;3.78;;;2.47;;
50092;SDS011;35974;47.752;10.290;2024-02-15T09:28:32;7.55;;;2.65;;
50092;SDS011;35974;47.752;10.290;2024-02-15T09:30:59;6.03;;;2.47;;
50092;SDS011;35974;47.752;10.290;2024-02-15T09:33:27;7.00;;;2.50;;
50092;SDS011;35974;47.752;10.290;2024-02-15T09:35:54;5.57;;;2.88;;
50092;SDS011;35974;47.752;10.290;2024-02-15T09:38:21;6.00;;;2.65;;
50092;SDS011;35974;47.752;10.290;2024-02-15T09:40:48;3.35;;;2.00;;
50092;SDS011;35974;47.752;10.290;2024-02-15T09:43:15;3.33;;;2.03;;
50092;SDS011;35974;47.752;10.290;2024-02-15T09:45:42;3.47;;;2.13;;
50092;SDS011;35974;47.752;10.290;2024-02-15T09:48:10;4.07;;;2.05;;
50092;SDS011;35974;47.752;10.290;2024-02-15T09:50:41;5.03;;;2.08;;
50092;SDS011;35974;47.752;10.290;2024-02-15T09:53:12;3.40;;;2.00;;
50092;SDS011;35974;47.752;10.290;2024-02-15T09:55:41;5.60;;;2.30;;
50092;SDS011;35974;47.752;10.290;2024-02-15T09:58:09;2.83;;;1.30;;
50092;SDS011;35974;47.752;10.290;2024-02-15T10:00:38;3.33;;;1.75;;
50092;SDS011;35974;47.752;10.290;2024-02-15T10:03:05;4.65;;;2.10;;
50092;SDS011;35974;47.752;10.290;2024-02-15T10:05:33;3.03;;;1.75;;
50092;SDS011;35974;47.752;10.290;2024-02-15T10:08:01;4.78;;;1.95;;
50092;SDS011;35974;47.752;10.290;2024-02-15T10:10:29;3.55;;;1.63;;
50092;SDS011;35974;47.752;10.290;2024-02-15T10:12:55;3.85;;;1.75;;
50092;SDS011;35974;47.752;10.290;2024-02-15T10:18:03;3.75;;;1.58;;
50092;SDS011;35974;47.752;10.290;2024-02-15T10:20:34;6.82;;;1.55;;
50092;SDS011;35974;47.752;10.290;2024-02-15T10:25:30;3.83;;;1.35;;
50092;SDS011;35974;47.752;10.290;2024-02-15T10:28:03;3.15;;;1.50;;
50092;SDS011;35974;47.752;10.290;2024-02-15T10:30:33;2.55;;;1.10;;
50092;SDS011;35974;47.752;10.290;2024-02-15T10:33:25;2.05;;;1.20;;
50092;SDS011;35974;47.752;10.290;2024-02-15T10:36:05;1.00;;;0.88;;
50092;SDS011;35974;47.752;10.290;2024-02-15T10:38:36;3.80;;;1.23;;
50092;SDS011;35974;47.752;10.290;2024-02-15T10:41:03;3.25;;;1.10;;
50092;SDS011;35974;47.752;10.290;2024-02-15T10:43:34;4.18;;;1.20;;
50092;SDS011;35974;47.752;10.290;2024-02-15T10:46:03;2.40;;;1.00;;
50092;SDS011;35974;47.752;10.290;2024-02-15T10:48:30;4.35;;;0.98;;
50092;SDS011;35974;47.752;10.290;2024-02-15T10:51:01;1.40;;;0.70;;
50092;SDS011;35974;47.752;10.290;2024-02-15T10:53:33;3.17;;;0.85;;
50092;SDS011;35974;47.752;10.290;2024-02-15T10:58:32;1.92;;;0.50;;
50092;SDS011;35974;47.752;10.290;2024-02-15T11:01:02;0.93;;;0.70;;
50092;SDS011;35974;47.752;10.290;2024-02-15T11:03:35;1.02;;;0.70;;
50092;SDS011;35974;47.752;10.290;2024-02-15T11:06:02;0.85;;;0.40;;
50092;SDS011;35974;47.752;10.290;2024-02-15T11:08:33;2.28;;;0.45;;
50092;SDS011;35974;47.752;10.290;2024-02-15T11:11:01;1.85;;;0.65;;
50092;SDS011;35974;47.752;10.290;2024-02-15T11:13:37;1.63;;;0.68;;
50092;SDS011;35974;47.752;10.290;2024-02-15T11:16:04;1.45;;;0.60;;
50092;SDS011;35974;47.752;10.290;2024-02-15T11:18:44;1.58;;;0.60;;
50092;SDS011;35974;47.752;10.290;2024-02-15T11:21:18;1.13;;;0.63;;
50092;SDS011;35974;47.752;10.290;2024-02-15T11:24:27;1.45;;;0.60;;
50092;SDS011;35974;47.752;10.290;2024-02-15T11:26:58;2.90;;;0.82;;
50092;SDS011;35974;47.752;10.290;2024-02-15T11:35:23;4.07;;;0.88;;
50092;SDS011;35974;47.752;10.290;2024-02-15T11:37:52;1.25;;;0.60;;
50092;SDS011;35974;47.752;10.290;2024-02-15T11:40:25;1.33;;;0.70;;
50092;SDS011;35974;47.752;10.290;2024-02-15T11:42:56;1.30;;;0.55;;
50092;SDS011;35974;47.752;10.290;2024-02-15T11:45:28;3.53;;;0.85;;
50092;SDS011;35974;47.752;10.290;2024-02-15T11:48:14;3.67;;;0.68;;
50092;SDS011;35974;47.752;10.290;2024-02-15T11:50:40;1.42;;;0.50;;
50092;SDS011;35974;47.752;10.290;2024-02-15T11:53:09;3.42;;;0.40;;
50092;SDS011;35974;47.752;10.290;2024-02-15T11:55:38;0.82;;;0.65;;
50092;SDS011;35974;47.752;10.290;2024-02-15T11:58:05;1.55;;;0.40;;
50092;SDS011;35974;47.752;10.290;2024-02-15T12:00:37;0.90;;;0.60;;
50092;SDS011;35974;47.752;10.290;2024-02-15T12:03:24;0.90;;;0.70;;
50092;SDS011;35974;47.752;10.290;2024-02-15T12:06:28;2.13;;;0.43;;
50092;SDS011;35974;47.752;10.290;2024-02-15T12:12:04;1.85;;;0.60;;
50092;SDS011;35974;47.752;10.290;2024-02-15T12:14:58;3.85;;;0.70;;
50092;SDS011;35974;47.752;10.290;2024-02-15T12:17:46;1.03;;;0.60;;
50092;SDS011;35974;47.752;10.290;2024-02-15T12:20:32;2.90;;;0.60;;
50092;SDS011;35974;47.752;10.290;2024-02-15T12:22:58;1.58;;;0.70;;
50092;SDS011;35974;47.752;10.290;2024-02-15T12:25:26;2.33;;;0.80;;
50092;SDS011;35974;47.752;10.290;2024-02-15T12:27:54;3.40;;;0.60;;
50092;SDS011;35974;47.752;10.290;2024-02-15T12:30:22;0.88;;;0.57;;
50092;SDS011;35974;47.752;10.290;2024-02-15T12:32:53;1.50;;;0.70;;
50092;SDS011;35974;47.752;10.290;2024-02-15T12:35:37;0.95;;;0.60;;
50092;SDS011;35974;47.752;10.290;2024-02-15T12:38:04;2.28;;;0.73;;
50092;SDS011;35974;47.752;10.290;2024-02-15T12:40:36;5.05;;;0.73;;
50092;SDS011;35974;47.752;10.290;2024-02-15T12:43:07;2.13;;;0.80;;
50092;SDS011;35974;47.752;10.290;2024-02-15T12:45:39;1.23;;;0.55;;
50092;SDS011;35974;47.752;10.290;2024-02-15T12:48:07;1.45;;;0.82;;
50092;SDS011;35974;47.752;10.290;2024-02-15T12:50:36;2.10;;;0.82;;
50092;SDS011;35974;47.752;10.290;2024-02-15T12:53:03;2.60;;;0.55;;
50092;SDS011;35974;47.752;10.290;2024-02-15T12:55:30;4.28;;;0.80;;
50092;SDS011;35974;47.752;10.290;2024-02-15T12:58:07;3.13;;;0.82;;
50092;SDS011;35974;47.752;10.290;2024-02-15T13:00:41;1.55;;;0.93;;
50092;SDS011;35974;47.752;10.290;2024-02-15T13:03:09;2.63;;;1.20;;
50092;SDS011;35974;47.752;10.290;2024-02-15T13:05:38;1.88;;;1.02;;
50092;SDS011;35974;47.752;10.290;2024-02-15T13:08:06;3.25;;;1.42;;
50092;SDS011;35974;47.752;10.290;2024-02-15T13:10:40;2.42;;;1.15;;
50092;SDS011;35974;47.752;10.290;2024-02-15T13:13:07;2.15;;;1.00;;
50092;SDS011;35974;47.752;10.290;2024-02-15T13:15:37;3.90;;;1.48;;
50092;SDS011;35974;47.752;10.290;2024-02-15T13:18:05;4.45;;;1.20;;
50092;SDS011;35974;47.752;10.290;2024-02-15T13:20:36;3.25;;;1.20;;
50092;SDS011;35974;47.752;10.290;2024-02-15T13:23:06;3.17;;;1.38;;
50092;SDS011;35974;47.752;10.290;2024-02-15T13:25:41;3.08;;;1.50;;
50092;SDS011;35974;47.752;10.290;2024-02-15T13:28:11;4.18;;;1.70;;
50092;SDS011;35974;47.752;10.290;2024-02-15T13:30:45;5.32;;;1.65;;
50092;SDS011;35974;47.752;10.290;2024-02-15T13:33:12;3.08;;;1.35;;
50092;SDS011;35974;47.752;10.290;2024-02-15T13:35:40;2.35;;;1.42;;
50092;SDS011;35974;47.752;10.290;2024-02-15T13:38:07;3.22;;;1.55;;
50092;SDS011;35974;47.752;10.290;2024-02-15T13:40:41;4.68;;;1.42;;
50092;SDS011;35974;47.752;10.290;2024-02-15T13:43:08;5.65;;;1.60;;
50092;SDS011;35974;47.752;10.290;2024-02-15T13:45:41;2.83;;;1.52;;
50092;SDS011;35974;47.752;10.290;2024-02-15T13:48:08;3.85;;;1.75;;
50092;SDS011;35974;47.752;10.290;2024-02-15T13:50:36;3.83;;;1.42;;
50092;SDS011;35974;47.752;10.290;2024-02-15T13:53:04;10.35;;;1.95;;
50092;SDS011;35974;47.752;10.290;2024-02-15T13:55:37;4.00;;;1.70;;
50092;SDS011;35974;47.752;10.290;2024-02-15T13:58:04;3.17;;;1.52;;
50092;SDS011;35974;47.752;10.290;2024-02-15T14:00:30;2.85;;;1.40;;
50092;SDS011;35974;47.752;10.290;2024-02-15T14:03:00;3.45;;;1.23;;
50092;SDS011;35974;47.752;10.290;2024-02-15T14:05:28;3.85;;;1.40;;
50092;SDS011;35974;47.752;10.290;2024-02-15T14:07:56;2.60;;;1.30;;
50092;SDS011;35974;47.752;10.290;2024-02-15T14:10:25;3.35;;;1.20;;
50092;SDS011;35974;47.752;10.290;2024-02-15T14:12:54;2.00;;;1.13;;
50092;SDS011;35974;47.752;10.290;2024-02-15T14:15:22;3.33;;;1.08;;
50092;SDS011;35974;47.752;10.290;2024-02-15T14:17:49;1.73;;;1.10;;
50092;SDS011;35974;47.752;10.290;2024-02-15T14:20:21;3.72;;;1.25;;
50092;SDS011;35974;47.752;10.290;2024-02-15T14:22:50;2.83;;;1.27;;
50092;SDS011;35974;47.752;10.290;2024-02-15T14:25:26;2.33;;;1.20;;
50092;SDS011;35974;47.752;10.290;2024-02-15T14:27:54;2.75;;;1.02;;
50092;SDS011;35974;47.752;10.290;2024-02-15T14:30:24;1.95;;;0.90;;
50092;SDS011;35974;47.752;10.290;2024-02-15T14:33:10;2.53;;;0.90;;
50092;SDS011;35974;47.752;10.290;2024-02-15T14:35:48;2.40;;;0.80;;
50092;SDS011;35974;47.752;10.290;2024-02-15T14:38:16;1.98;;;0.70;;
50092;SDS011;35974;47.752;10.290;2024-02-15T14:40:48;2.13;;;0.63;;
50092;SDS011;35974;47.752;10.290;2024-02-15T14:43:28;1.30;;;0.68;;
50092;SDS011;35974;47.752;10.290;2024-02-15T14:45:55;1.17;;;0.63;;
50092;SDS011;35974;47.752;10.290;2024-02-15T14:48:32;3.63;;;0.95;;
50092;SDS011;35974;47.752;10.290;2024-02-15T14:51:00;2.67;;;0.70;;
50092;SDS011;35974;47.752;10.290;2024-02-15T14:53:29;0.93;;;0.40;;
50092;SDS011;35974;47.752;10.290;2024-02-15T14:55:55;2.85;;;0.85;;
50092;SDS011;35974;47.752;10.290;2024-02-15T14:58:23;1.38;;;0.60;;
50092;SDS011;35974;47.752;10.290;2024-02-15T15:00:52;1.88;;;0.52;;
50092;SDS011;35974;47.752;10.290;2024-02-15T15:03:30;1.90;;;0.77;;
50092;SDS011;35974;47.752;10.290;2024-02-15T15:06:07;0.90;;;0.55;;
50092;SDS011;35974;47.752;10.290;2024-02-15T15:08:53;2.67;;;0.95;;
50092;SDS011;35974;47.752;10.290;2024-02-15T15:11:43;3.05;;;0.80;;
50092;SDS011;35974;47.752;10.290;2024-02-15T15:14:41;2.92;;;0.60;;
50092;SDS011;35974;47.752;10.290;2024-02-15T15:17:08;2.38;;;0.80;;
50092;SDS011;35974;47.752;10.290;2024-02-15T15:19:38;1.63;;;0.60;;